»·PEaware :: N969WR KTUS-KELP

N969WR :: KTUS-KELP

FLIGHT INFORMATION

Flight Status: Arrived
Operator: Privately registered:
United States
More flights under this callsign
Pilot: Ion I. (24133)
Aircraft: CANADAIR CL-600 CHALLENGER
(CL60)
More flights by this aircraft type
Origin: KTUS Tucson Intl
United States
Destination: KELP El Paso Intl
United States
More flights between these airports :: More routes between these airports
Route: WLDKT3 SSO TEEES MOLLY5
File this flight plan on PilotEdge
Remarks:
Altitude:
(Current/Filed)
33,000ft
Speed:
(Current/Filed)
460kts
Departed: 19-Sep-23 03:27 PM
Arrived: 19-Sep-23 04:13 PM
Distance/Time
Traveled:
233nm/0:46
Distance/Time
To Go:
Arrived

Flight Plot

Page will automatically refresh every two minutes.

Flight plan parsing failed; only flown route is shown


Map Options




Map Legend


Flown Route
Filed Route
Departure Airport
Arrival Airport
Navaid (VOR, NDB)
Fix

Horizontal Profiles

Position Reports

Time Latitude Longitude Heading Altitude Ground
Speed
19-Sep-23 14:50 32.126791 -110.944259 133 2575ft 0kts
19-Sep-23 14:51 32.126791 -110.944259 133 2575ft 0kts
19-Sep-23 14:52 32.126791 -110.944259 133 2575ft 0kts
19-Sep-23 14:53 32.126791 -110.944259 133 2575ft 0kts
19-Sep-23 14:54 32.126791 -110.944259 133 2575ft 0kts
19-Sep-23 14:55 32.126791 -110.944259 133 2575ft 0kts
19-Sep-23 14:56 32.126791 -110.944259 133 2575ft 0kts
19-Sep-23 14:57 32.126791 -110.944259 133 2575ft 0kts
19-Sep-23 14:58 32.126791 -110.944259 133 2575ft 0kts
19-Sep-23 14:59 32.126791 -110.944259 133 2575ft 0kts
19-Sep-23 15:00 32.126791 -110.944259 133 2575ft 0kts
19-Sep-23 15:01 32.126791 -110.944259 133 2575ft 0kts
19-Sep-23 15:03 32.126791 -110.944259 133 2575ft 0kts
19-Sep-23 15:04 32.126791 -110.944259 133 2575ft 0kts
19-Sep-23 15:05 32.126791 -110.944259 133 2575ft 0kts
19-Sep-23 15:06 32.126791 -110.944259 133 2575ft 0kts
19-Sep-23 15:07 32.126791 -110.944259 133 2575ft 0kts
19-Sep-23 15:08 32.126791 -110.944259 133 2575ft 0kts
19-Sep-23 15:09 32.126791 -110.944259 133 2575ft 0kts
19-Sep-23 15:10 32.126791 -110.944259 133 2575ft 0kts
19-Sep-23 15:11 32.126791 -110.944259 133 2575ft 0kts
19-Sep-23 15:12 32.126791 -110.944259 133 2575ft 0kts
19-Sep-23 15:13 32.126791 -110.944259 133 2575ft 0kts
19-Sep-23 15:14 32.126791 -110.944259 133 2575ft 0kts
19-Sep-23 15:15 32.126791 -110.944259 133 2575ft 0kts
19-Sep-23 15:16 32.126791 -110.944259 133 2575ft 0kts
19-Sep-23 15:17 32.126791 -110.944259 133 2575ft 0kts
19-Sep-23 15:18 32.126568 -110.944467 313 2575ft 6kts
19-Sep-23 15:19 32.124792 -110.947062 133 2576ft 13kts
19-Sep-23 15:20 32.121052 -110.942670 136 2592ft 20kts
19-Sep-23 15:21 32.116800 -110.937689 136 2607ft 22kts
19-Sep-23 15:22 32.112091 -110.932159 135 2622ft 25kts
19-Sep-23 15:23 32.106804 -110.925958 134 2642ft 27kts
19-Sep-23 15:24 32.102747 -110.922161 224 2653ft 3kts
19-Sep-23 15:25 32.102741 -110.922168 225 2653ft 0kts
19-Sep-23 15:26 32.102358 -110.922594 221 2652ft 8kts
19-Sep-23 15:27 32.106061 -110.927599 314 2637ft 112kts
19-Sep-23 15:27 32.132839 -110.958550 311 4497ft 176kts
19-Sep-23 15:29 32.180084 -111.014824 312 7951ft 224kts
19-Sep-23 15:30 32.234079 -111.053237 12 10884ft 253kts
19-Sep-23 15:31 32.294903 -110.993720 54 13283ft 330kts
19-Sep-23 15:32 32.311316 -110.878153 86 15824ft 388kts
19-Sep-23 15:32 32.318290 -110.769322 86 18587ft 407kts
19-Sep-23 15:34 32.329173 -110.608515 85 22009ft 434kts
19-Sep-23 15:35 32.326294 -110.461956 93 24050ft 459kts
19-Sep-23 15:36 32.319389 -110.310241 93 25052ft 468kts
19-Sep-23 15:36 32.313574 -110.180392 93 26878ft 482kts
19-Sep-23 15:37 32.306125 -110.018818 92 28667ft 503kts
19-Sep-23 15:38 32.298344 -109.850130 92 30271ft 521kts
19-Sep-23 15:39 32.289979 -109.676515 93 31739ft 534kts
19-Sep-23 15:41 32.279748 -109.469189 96 33214ft 544kts
19-Sep-23 15:41 32.272250 -109.318758 94 33879ft 553kts
19-Sep-23 15:42 32.270033 -109.135742 90 33953ft 557kts
19-Sep-23 15:43 32.270631 -108.951819 90 33968ft 558kts
19-Sep-23 15:44 32.271045 -108.767536 90 33993ft 557kts
19-Sep-23 15:45 32.271080 -108.583825 90 34012ft 557kts
19-Sep-23 15:46 32.270906 -108.400552 89 34031ft 555kts
19-Sep-23 15:47 32.267764 -108.217584 98 33705ft 556kts
19-Sep-23 15:48 32.246806 -108.040805 100 31523ft 533kts
19-Sep-23 15:49 32.226484 -107.870046 100 29318ft 514kts
19-Sep-23 15:50 32.207053 -107.704897 98 26971ft 489kts
19-Sep-23 15:51 32.188865 -107.549292 97 24782ft 463kts
19-Sep-23 15:52 32.171631 -107.401330 98 22805ft 445kts
19-Sep-23 15:53 32.154723 -107.259637 98 20856ft 427kts
19-Sep-23 15:54 32.138317 -107.123012 99 18952ft 411kts
19-Sep-23 15:55 32.122341 -106.992604 98 17130ft 389kts
19-Sep-23 15:56 32.097618 -106.872977 105 15340ft 363kts
19-Sep-23 15:57 32.072265 -106.761280 107 13689ft 341kts
19-Sep-23 15:58 32.046761 -106.656433 108 12115ft 323kts
19-Sep-23 15:59 32.022129 -106.556495 108 10565ft 310kts
19-Sep-23 16:00 31.999788 -106.461623 105 9508ft 284kts
19-Sep-23 16:01 31.981767 -106.376841 105 9525ft 261kts
19-Sep-23 16:02 31.955221 -106.297070 117 9052ft 259kts
19-Sep-23 16:03 31.925033 -106.223373 117 7958ft 242kts
19-Sep-23 16:04 31.896770 -106.153891 117 7086ft 226kts
19-Sep-23 16:05 31.869544 -106.088259 127 7063ft 217kts
19-Sep-23 16:06 31.824341 -106.099134 234 7093ft 196kts
19-Sep-23 16:07 31.790975 -106.149876 251 7054ft 195kts
19-Sep-23 16:08 31.793209 -106.213514 271 6326ft 192kts
19-Sep-23 16:09 31.795877 -106.267126 272 5537ft 158kts
19-Sep-23 16:10 31.798633 -106.317617 272 4720ft 148kts
19-Sep-23 16:11 31.800939 -106.366067 272 3959ft 129kts
19-Sep-23 16:12 31.800255 -106.377479 183 3943ft 13kts
19-Sep-23 16:13 31.798531 -106.376614 86 3945ft 7kts
19-Sep-23 16:14 31.797719 -106.375931 261 3946ft 0kts
19-Sep-23 16:15 31.797718 -106.375935 261 3946ft 0kts
19-Sep-23 16:16 31.797718 -106.375935 261 3946ft 0kts
19-Sep-23 16:17 31.797718 -106.375935 261 3946ft 0kts
19-Sep-23 16:18 31.797718 -106.375935 261 3946ft 0kts
19-Sep-23 16:19 31.797718 -106.375935 261 3946ft 0kts
19-Sep-23 16:20 31.797718 -106.375935 261 3946ft 0kts
19-Sep-23 16:21 31.797718 -106.375935 261 3946ft 0kts
19-Sep-23 16:22 31.797718 -106.375935 261 3946ft 0kts
19-Sep-23 16:23 31.797718 -106.375935 261 3946ft 0kts

Navigation Log

Ident Type
Flight plan parsing failed, navigation log unavailable